createdAt,value
2022-11-24T00:01:19.606Z,75.50
2022-11-24T00:03:55.022Z,75.40
2022-11-24T00:06:21.905Z,75.10
2022-11-24T00:08:49.073Z,74.90
2022-11-24T00:11:18.820Z,74.70
2022-11-24T00:13:46.683Z,75.40
2022-11-24T00:16:19.327Z,74.50
2022-11-24T00:18:47.870Z,74.40
2022-11-24T00:21:16.361Z,74.30
2022-11-24T00:23:44.032Z,74.20
2022-11-24T00:26:16.416Z,74.30
2022-11-24T00:28:45.207Z,74.20
2022-11-24T00:31:20.874Z,74.30
2022-11-24T00:33:49.392Z,74.30
2022-11-24T00:36:17.407Z,74.40
2022-11-24T00:38:45.303Z,74.50
2022-11-24T00:41:12.356Z,74.40
2022-11-24T00:43:39.353Z,74.20
2022-11-24T00:46:06.418Z,74.30
2022-11-24T00:48:33.349Z,74.20
2022-11-24T00:51:04.309Z,74.20
2022-11-24T00:53:31.663Z,74.00
2022-11-24T00:55:58.577Z,73.90
2022-11-24T00:58:25.711Z,73.90
2022-11-24T01:00:53.449Z,73.90
2022-11-24T01:03:21.173Z,73.90
2022-11-24T01:05:48.577Z,73.90
2022-11-24T01:08:15.473Z,73.90
2022-11-24T01:10:42.358Z,73.90
2022-11-24T01:13:09.189Z,74.00
2022-11-24T01:15:36.859Z,74.00
2022-11-24T01:18:04.565Z,74.00
2022-11-24T01:20:32.326Z,74.20
2022-11-24T01:22:59.176Z,74.40
2022-11-24T01:25:26.086Z,74.60
2022-11-24T01:27:53.012Z,74.70
2022-11-24T01:30:19.975Z,74.80
2022-11-24T01:32:46.793Z,74.90
2022-11-24T01:35:13.674Z,75.00
2022-11-24T01:37:40.478Z,74.90
2022-11-24T01:40:08.191Z,74.80
2022-11-24T01:42:52.030Z,74.70
2022-11-24T01:45:31.290Z,74.70
2022-11-24T01:47:59.105Z,74.70
2022-11-24T01:50:26.255Z,74.80
2022-11-24T01:52:55.276Z,74.80
2022-11-24T01:55:27.274Z,74.80
2022-11-24T01:57:59.178Z,74.80
2022-11-24T02:00:26.095Z,74.70
2022-11-24T02:02:53.668Z,74.70
2022-11-24T02:05:20.467Z,74.70
2022-11-24T02:07:48.521Z,74.60
2022-11-24T02:10:16.567Z,74.40
2022-11-24T02:12:48.995Z,74.40
2022-11-24T02:15:16.714Z,74.40
2022-11-24T02:17:44.016Z,74.30
2022-11-24T02:20:12.229Z,74.20
2022-11-24T02:22:42.055Z,74.10
2022-11-24T02:25:44.885Z,74.00
2022-11-24T02:28:16.299Z,74.00
2022-11-24T02:30:43.529Z,73.90
2022-11-24T02:33:11.708Z,73.80
2022-11-24T02:35:39.087Z,73.80
2022-11-24T02:38:06.216Z,74.30
2022-11-24T02:40:33.370Z,73.60
2022-11-24T02:43:12.406Z,73.70
2022-11-24T02:45:39.312Z,73.50
2022-11-24T02:48:06.674Z,73.50
2022-11-24T02:50:33.720Z,73.50
2022-11-24T02:53:00.594Z,73.40
2022-11-24T02:55:27.401Z,73.30
2022-11-24T02:57:54.220Z,73.20
2022-11-24T03:00:21.083Z,73.10
2022-11-24T03:02:47.997Z,73.10
2022-11-24T03:05:15.050Z,73.00
2022-11-24T03:07:42.044Z,73.00
2022-11-24T03:10:09.290Z,72.80
2022-11-24T03:12:36.261Z,72.70
2022-11-24T03:15:03.720Z,72.70
2022-11-24T03:17:30.592Z,72.60
2022-11-24T03:20:01.538Z,72.70
2022-11-24T03:22:31.428Z,72.60
2022-11-24T03:24:58.599Z,72.70
2022-11-24T03:27:25.444Z,72.70
2022-11-24T03:29:52.339Z,72.80
2022-11-24T03:32:19.159Z,72.80
2022-11-24T03:34:45.988Z,72.70
2022-11-24T03:37:12.853Z,72.70
2022-11-24T03:39:39.829Z,72.60
2022-11-24T03:42:06.725Z,72.50
2022-11-24T03:44:33.805Z,72.70
2022-11-24T03:47:00.840Z,72.70
2022-11-24T03:49:27.669Z,72.60
2022-11-24T03:51:54.499Z,72.60
2022-11-24T03:54:21.949Z,72.70
2022-11-24T03:56:48.897Z,72.80
2022-11-24T03:59:15.737Z,72.70
2022-11-24T04:01:42.790Z,72.80
2022-11-24T04:04:11.748Z,72.80
2022-11-24T04:06:39.071Z,73.80
2022-11-24T04:09:06.459Z,73.00
2022-11-24T04:11:51.890Z,73.10
2022-11-24T04:14:19.427Z,73.20
2022-11-24T04:16:46.397Z,73.30
2022-11-24T04:19:13.264Z,73.30
2022-11-24T04:21:40.100Z,73.40
2022-11-24T04:24:07.008Z,73.40
2022-11-24T04:26:33.825Z,73.50
2022-11-24T04:29:00.675Z,73.60
2022-11-24T04:31:27.541Z,73.70
2022-11-24T04:33:54.498Z,73.80
2022-11-24T04:36:21.399Z,73.80
2022-11-24T04:39:20.020Z,74.00
2022-11-24T04:41:35.151Z,74.90
2022-11-24T04:44:02.027Z,74.10
2022-11-24T04:46:30.988Z,74.20
2022-11-24T04:48:57.915Z,74.20
2022-11-24T04:51:24.689Z,74.30
2022-11-24T04:53:51.630Z,74.20
2022-11-24T04:56:18.486Z,74.30
2022-11-24T04:58:48.894Z,74.40
2022-11-24T05:01:15.846Z,74.60
2022-11-24T05:03:42.669Z,74.70
2022-11-24T05:06:09.553Z,74.90
2022-11-24T05:08:36.466Z,75.00
2022-11-24T05:11:07.095Z,75.00
2022-11-24T05:13:34.235Z,75.10
2022-11-24T05:16:01.751Z,75.20
2022-11-24T05:18:28.947Z,75.10
2022-11-24T05:20:56.054Z,75.00
2022-11-24T05:23:22.948Z,75.00
2022-11-24T05:25:49.898Z,74.80
2022-11-24T05:28:17.661Z,74.70
2022-11-24T05:30:45.431Z,74.30
2022-11-24T05:33:18.900Z,73.90
2022-11-24T05:35:46.546Z,73.80
2022-11-24T05:38:13.391Z,73.60
2022-11-24T05:40:40.426Z,73.70
2022-11-24T05:43:14.412Z,73.70
2022-11-24T05:45:41.692Z,73.90
2022-11-24T05:48:14.410Z,74.10
2022-11-24T05:50:41.686Z,74.10
2022-11-24T05:53:11.877Z,74.10
2022-11-24T05:55:40.278Z,74.10
2022-11-24T05:58:08.665Z,74.10
2022-11-24T06:00:36.247Z,74.20
2022-11-24T06:03:03.372Z,74.20
2022-11-24T06:05:30.552Z,74.20
2022-11-24T06:07:59.535Z,74.20
2022-11-24T06:10:26.780Z,74.20
2022-11-24T06:12:53.789Z,75.20
2022-11-24T06:15:20.717Z,74.40
2022-11-24T06:17:55.704Z,74.50
2022-11-24T06:20:27.058Z,74.60
2022-11-24T06:23:00.555Z,74.70
2022-11-24T06:25:28.532Z,74.70
2022-11-24T06:27:55.657Z,74.70
2022-11-24T06:30:22.492Z,74.80
2022-11-24T06:32:50.115Z,74.80
2022-11-24T06:35:17.641Z,74.90
2022-11-24T06:37:45.740Z,75.00
2022-11-24T06:40:12.893Z,75.10
2022-11-24T06:42:39.779Z,75.20
2022-11-24T06:45:09.290Z,75.30
2022-11-24T06:47:36.884Z,75.30
2022-11-24T06:50:04.434Z,75.30
2022-11-24T06:52:31.470Z,75.40
2022-11-24T06:54:58.401Z,75.30
2022-11-24T06:57:25.268Z,75.30
2022-11-24T06:59:52.136Z,75.20
2022-11-24T07:02:19.058Z,75.20
2022-11-24T07:04:45.923Z,75.10
2022-11-24T07:07:12.964Z,75.10
2022-11-24T07:09:39.904Z,74.90
2022-11-24T07:12:07.250Z,74.90
2022-11-24T07:14:34.300Z,74.90
2022-11-24T07:17:02.664Z,74.90
2022-11-24T07:19:29.622Z,74.90
2022-11-24T07:21:56.830Z,75.00
2022-11-24T07:24:23.699Z,75.00
2022-11-24T07:26:50.676Z,74.80
2022-11-24T07:29:17.564Z,74.80
2022-11-24T07:31:45.983Z,74.80
2022-11-24T07:34:14.743Z,74.70
2022-11-24T07:36:42.715Z,74.80
2022-11-24T07:39:09.748Z,74.80
2022-11-24T07:41:36.657Z,74.80
2022-11-24T07:44:03.689Z,74.90
2022-11-24T07:46:30.627Z,74.80
2022-11-24T07:48:57.609Z,74.60
2022-11-24T07:51:24.584Z,74.60
2022-11-24T07:53:51.460Z,74.50
2022-11-24T07:56:18.291Z,74.40
2022-11-24T07:58:49.734Z,74.40
2022-11-24T08:01:20.083Z,74.50
2022-11-24T08:03:47.218Z,74.40
2022-11-24T08:06:36.243Z,74.40
2022-11-24T08:09:01.346Z,74.40
2022-11-24T08:11:31.340Z,74.50
2022-11-24T08:13:58.340Z,74.50
2022-11-24T08:16:25.219Z,74.40
2022-11-24T08:18:54.088Z,74.50
2022-11-24T08:21:23.216Z,74.70
2022-11-24T08:23:53.731Z,74.70
2022-11-24T08:26:20.594Z,74.70
2022-11-24T08:28:47.798Z,74.50
2022-11-24T08:31:18.766Z,74.50
2022-11-24T08:33:46.106Z,74.60
2022-11-24T08:36:16.322Z,74.70
2022-11-24T08:38:44.764Z,75.10
2022-11-24T08:41:14.512Z,75.30
2022-11-24T08:43:41.954Z,75.50
2022-11-24T08:46:13.177Z,75.80
2022-11-24T08:48:40.575Z,75.80
2022-11-24T08:51:10.393Z,75.60
2022-11-24T08:53:37.469Z,75.00
2022-11-24T08:56:05.319Z,74.40
2022-11-24T08:58:32.929Z,73.70
2022-11-24T09:01:14.010Z,73.00
2022-11-24T09:03:51.275Z,72.70
2022-11-24T09:06:22.909Z,72.60
2022-11-24T09:08:50.104Z,72.60
2022-11-24T09:11:17.629Z,72.40
2022-11-24T09:13:45.061Z,72.10
2022-11-24T09:16:21.210Z,72.50
2022-11-24T09:18:48.689Z,71.70
2022-11-24T09:21:20.159Z,71.40
2022-11-24T09:23:48.970Z,71.00
2022-11-24T09:26:18.545Z,70.30
2022-11-24T09:28:45.921Z,70.40
2022-11-24T09:31:15.004Z,70.20
2022-11-24T09:33:42.569Z,69.80
2022-11-24T09:36:10.067Z,69.50
2022-11-24T09:38:37.306Z,69.30
2022-11-24T09:41:27.428Z,69.00
2022-11-24T09:44:23.339Z,69.10
2022-11-24T09:47:16.261Z,68.60
2022-11-24T09:49:51.685Z,67.90
2022-11-24T09:52:38.878Z,68.20
2022-11-24T09:55:32.787Z,69.40
2022-11-24T09:58:19.653Z,68.20
2022-11-24T10:00:49.780Z,67.60
2022-11-24T10:03:34.062Z,67.50
2022-11-24T10:06:09.288Z,67.50
2022-11-24T10:08:54.353Z,67.60
2022-11-24T10:11:46.785Z,67.60
2022-11-24T10:14:46.754Z,67.70
2022-11-24T10:17:49.060Z,67.70
2022-11-24T10:20:38.928Z,68.30
2022-11-24T10:23:39.738Z,68.30
2022-11-24T10:26:16.245Z,67.90
2022-11-24T10:28:55.251Z,68.00
2022-11-24T10:31:35.611Z,68.20
2022-11-24T10:34:20.597Z,68.40
2022-11-24T10:36:57.527Z,68.20
2022-11-24T10:39:35.998Z,67.90
2022-11-24T10:42:37.117Z,68.50
2022-11-24T10:45:11.222Z,68.40
2022-11-24T10:47:39.204Z,68.40
2022-11-24T10:50:15.112Z,68.60
2022-11-24T10:52:46.766Z,68.80
2022-11-24T10:55:13.877Z,68.80
2022-11-24T10:57:41.222Z,69.10
2022-11-24T11:00:20.306Z,68.90
2022-11-24T11:02:49.290Z,68.90
2022-11-24T11:05:41.864Z,68.90
2022-11-24T11:08:14.871Z,68.80
2022-11-24T11:10:43.262Z,69.00
2022-11-24T11:13:30.225Z,69.00
2022-11-24T11:15:58.557Z,68.90
2022-11-24T11:18:32.011Z,68.80
2022-11-24T11:21:02.131Z,68.80
2022-11-24T11:23:35.133Z,68.80
2022-11-24T11:26:38.662Z,69.80
2022-11-24T11:34:49.123Z,69.20
2022-11-24T11:37:18.106Z,69.00
2022-11-24T11:39:50.950Z,68.70
2022-11-24T11:45:27.341Z,68.50
2022-11-24T11:48:03.240Z,68.50
2022-11-24T11:51:21.617Z,68.40
2022-11-24T11:53:52.202Z,68.30
2022-11-24T11:56:50.341Z,68.10
2022-11-24T11:59:55.206Z,68.40
2022-11-24T12:02:52.917Z,67.90
2022-11-24T12:05:39.012Z,68.00
2022-11-24T12:08:23.899Z,67.70
2022-11-24T12:11:05.028Z,68.00
2022-11-24T12:13:54.636Z,68.10
2022-11-24T12:16:29.748Z,68.30
2022-11-24T12:19:36.136Z,67.90
2022-11-24T12:22:50.462Z,68.00
2022-11-24T12:25:37.352Z,68.10
2022-11-24T12:28:17.592Z,68.20
2022-11-24T12:31:17.341Z,68.10
2022-11-24T12:34:16.608Z,68.00
2022-11-24T12:37:00.428Z,67.70
2022-11-24T12:39:49.620Z,67.60
2022-11-24T12:42:53.295Z,67.60
2022-11-24T12:45:34.719Z,67.50
2022-11-24T12:48:33.551Z,68.60
2022-11-24T12:51:01.454Z,67.80
2022-11-24T12:53:34.008Z,67.60
2022-11-24T12:56:09.685Z,67.70
2022-11-24T12:59:00.163Z,67.80
2022-11-24T13:02:04.169Z,68.00
2022-11-24T13:04:56.811Z,68.10
2022-11-24T13:07:42.703Z,67.90
2022-11-24T13:10:40.492Z,67.70
2022-11-24T13:13:13.271Z,67.50
2022-11-24T13:18:43.230Z,68.00
2022-11-24T13:21:32.308Z,67.80
2022-11-24T13:24:01.896Z,67.60
2022-11-24T13:26:31.772Z,67.20
2022-11-24T13:29:13.462Z,67.20
2022-11-24T13:31:51.618Z,66.90
2022-11-24T13:34:40.511Z,66.80
2022-11-24T13:37:31.485Z,67.00
2022-11-24T13:40:22.548Z,67.00
2022-11-24T13:43:01.288Z,67.10
2022-11-24T13:45:41.204Z,67.20
2022-11-24T13:48:28.504Z,66.90
2022-11-24T13:50:58.099Z,66.90
2022-11-24T13:53:49.155Z,66.90
2022-11-24T13:56:15.913Z,67.10
2022-11-24T13:58:49.005Z,67.00
2022-11-24T14:01:30.132Z,66.90
2022-11-24T14:07:09.510Z,66.60
2022-11-24T14:09:47.093Z,66.60
2022-11-24T14:12:16.900Z,66.40
2022-11-24T14:14:46.246Z,66.40
2022-11-24T14:17:22.296Z,66.50
2022-11-24T14:19:54.678Z,66.60
2022-11-24T14:22:44.067Z,66.60
2022-11-24T14:25:27.872Z,66.70
2022-11-24T14:27:54.765Z,66.60
2022-11-24T14:30:24.251Z,66.60
2022-11-24T14:32:59.122Z,66.70
2022-11-24T14:35:31.899Z,66.80
2022-11-24T14:38:01.626Z,66.70
2022-11-24T14:40:48.763Z,66.80
2022-11-24T14:43:24.171Z,66.70
2022-11-24T14:46:09.814Z,66.80
2022-11-24T14:48:38.685Z,66.80
2022-11-24T14:51:10.831Z,66.90
2022-11-24T14:53:42.555Z,66.90
2022-11-24T14:56:37.308Z,67.00
2022-11-24T14:59:20.774Z,67.20
2022-11-24T15:01:47.759Z,68.40
2022-11-24T15:04:46.385Z,67.70
2022-11-24T15:07:25.969Z,67.90
2022-11-24T15:10:01.399Z,68.00
2022-11-24T15:12:39.409Z,68.10
2022-11-24T15:15:30.699Z,68.10
2022-11-24T15:17:59.201Z,68.10
2022-11-24T15:20:46.210Z,68.00
2022-11-24T15:23:26.181Z,68.10
2022-11-24T15:25:56.820Z,68.00
2022-11-24T15:28:27.543Z,68.00
2022-11-24T15:31:02.242Z,68.00
2022-11-24T15:33:29.594Z,68.00
2022-11-24T15:35:56.642Z,68.00
2022-11-24T15:38:23.962Z,67.90
2022-11-24T15:40:53.095Z,68.00
2022-11-24T15:43:34.953Z,68.20
2022-11-24T15:46:03.068Z,68.40
2022-11-24T15:48:30.630Z,68.60
2022-11-24T15:50:59.247Z,68.80
2022-11-24T15:53:32.760Z,69.00
2022-11-24T15:56:01.582Z,69.30
2022-11-24T15:58:28.547Z,69.40
2022-11-24T16:00:55.495Z,69.40
2022-11-24T16:06:22.012Z,69.60
2022-11-24T16:08:50.544Z,69.70
2022-11-24T16:11:17.413Z,69.80
2022-11-24T16:13:48.569Z,69.90
2022-11-24T16:16:19.952Z,70.00
2022-11-24T16:18:46.847Z,69.90
2022-11-24T16:21:13.701Z,69.80
2022-11-24T16:23:40.541Z,69.80
2022-11-24T16:26:07.487Z,69.80
2022-11-24T16:28:34.530Z,69.90
2022-11-24T16:31:01.647Z,69.90
2022-11-24T16:33:29.863Z,70.90
2022-11-24T16:35:56.777Z,70.20
2022-11-24T16:38:23.977Z,71.20
2022-11-24T16:40:52.532Z,70.50
2022-11-24T16:43:19.747Z,70.50
2022-11-24T16:45:46.813Z,70.70
2022-11-24T16:48:13.781Z,70.60
2022-11-24T16:50:40.688Z,70.60
2022-11-24T16:53:07.688Z,70.60
2022-11-24T16:55:34.588Z,70.50
2022-11-24T16:58:03.981Z,70.40
2022-11-24T17:00:30.958Z,70.30
2022-11-24T17:02:57.873Z,70.20
2022-11-24T17:05:25.588Z,70.20
2022-11-24T17:07:52.582Z,70.10
2022-11-24T17:10:19.700Z,70.10
2022-11-24T17:12:46.573Z,70.30
2022-11-24T17:20:47.180Z,71.00
2022-11-24T17:23:14.104Z,71.00
2022-11-24T17:25:41.071Z,71.00
2022-11-24T17:28:07.864Z,71.00
2022-11-24T17:30:36.995Z,71.00
2022-11-24T17:33:03.852Z,71.00
2022-11-24T17:35:30.742Z,70.80
2022-11-24T17:37:58.180Z,70.90
2022-11-24T17:40:29.266Z,70.90
2022-11-24T17:43:00.447Z,70.80
2022-11-24T17:45:29.411Z,70.80
2022-11-24T17:47:58.958Z,70.80
2022-11-24T17:50:26.619Z,70.80
2022-11-24T17:52:54.091Z,70.80
2022-11-24T17:55:21.259Z,70.80
2022-11-24T17:57:48.116Z,70.70
2022-11-24T18:00:15.454Z,70.80
2022-11-24T18:02:42.332Z,70.60
2022-11-24T18:05:09.462Z,70.60
2022-11-24T18:07:39.344Z,70.60
2022-11-24T18:10:06.713Z,70.50
2022-11-24T18:12:33.640Z,70.50
2022-11-24T18:15:00.590Z,70.30
2022-11-24T18:17:29.034Z,70.30
2022-11-24T18:19:55.987Z,70.20
2022-11-24T18:22:43.012Z,70.20
2022-11-24T18:25:10.016Z,70.20
2022-11-24T18:27:36.874Z,70.10
2022-11-24T18:30:05.056Z,70.10
2022-11-24T18:32:32.684Z,70.00
2022-11-24T18:34:59.563Z,70.00
2022-11-24T18:37:26.462Z,70.00
2022-11-24T18:39:53.334Z,70.00
2022-11-24T18:42:20.971Z,70.00
2022-11-24T18:44:52.592Z,69.90
2022-11-24T18:47:20.893Z,69.90
2022-11-24T18:49:47.733Z,70.00
2022-11-24T18:52:14.761Z,70.00
2022-11-24T18:54:41.802Z,70.00
2022-11-24T18:57:08.733Z,70.00
2022-11-24T18:59:36.782Z,70.10
2022-11-24T19:02:03.689Z,70.20
2022-11-24T19:04:30.545Z,70.20
2022-11-24T19:06:57.396Z,70.20
2022-11-24T19:09:25.500Z,70.20
2022-11-24T19:11:52.401Z,70.20
2022-11-24T19:14:19.807Z,70.30
2022-11-24T19:16:50.335Z,70.30
2022-11-24T19:19:17.478Z,70.30
2022-11-24T19:21:44.614Z,70.20
2022-11-24T19:24:13.221Z,70.20
2022-11-24T19:26:40.520Z,70.20
2022-11-24T19:29:08.293Z,70.20
2022-11-24T19:31:35.930Z,70.20
2022-11-24T19:34:03.645Z,70.20
2022-11-24T19:36:31.201Z,70.20
2022-11-24T19:38:58.943Z,70.10
2022-11-24T19:41:28.454Z,70.00
2022-11-24T19:43:56.665Z,70.00
2022-11-24T19:46:27.935Z,70.00
2022-11-24T19:48:57.171Z,69.90
2022-11-24T19:51:30.778Z,69.90
2022-11-24T19:53:58.560Z,69.90
2022-11-24T19:56:28.034Z,69.80
2022-11-24T19:58:55.938Z,69.70
2022-11-24T20:01:25.047Z,69.70
2022-11-24T20:04:12.408Z,69.60
2022-11-24T20:06:42.696Z,69.50
2022-11-24T20:09:11.714Z,69.60
2022-11-24T20:11:39.535Z,69.40
2022-11-24T20:14:07.846Z,69.40
2022-11-24T20:16:35.340Z,69.40
2022-11-24T20:19:07.463Z,69.40
2022-11-24T20:21:36.248Z,69.30
2022-11-24T20:24:10.001Z,69.30
2022-11-24T20:26:39.808Z,69.30
2022-11-24T20:29:06.983Z,70.20
2022-11-24T20:31:53.904Z,69.20
2022-11-24T20:34:22.088Z,69.10
2022-11-24T20:36:49.433Z,69.30
2022-11-24T20:39:20.113Z,69.40
2022-11-24T20:41:47.317Z,69.20
2022-11-24T20:44:16.814Z,69.20
2022-11-24T20:46:45.834Z,69.10
2022-11-24T20:49:16.481Z,69.10
2022-11-24T20:51:46.945Z,70.00
2022-11-24T20:54:19.237Z,69.10
2022-11-24T20:56:46.824Z,69.30
2022-11-24T20:59:22.074Z,69.30
2022-11-24T21:01:50.352Z,69.30
2022-11-24T21:04:21.437Z,69.50
2022-11-24T21:06:49.002Z,69.40
2022-11-24T21:09:15.972Z,69.70
2022-11-24T21:11:43.002Z,69.70
2022-11-24T21:14:10.348Z,69.80
2022-11-24T21:16:39.265Z,69.90
2022-11-24T21:19:12.275Z,69.90
2022-11-24T21:21:42.437Z,69.90
2022-11-24T21:24:14.884Z,69.90
2022-11-24T21:26:42.707Z,70.00
2022-11-24T21:29:12.389Z,70.00
2022-11-24T21:31:39.400Z,70.10
2022-11-24T21:34:08.029Z,70.10
2022-11-24T21:36:35.849Z,70.20
2022-11-24T21:39:03.974Z,70.20
2022-11-24T21:41:33.199Z,70.30
2022-11-24T21:44:00.201Z,70.30
2022-11-24T21:46:29.389Z,70.40
2022-11-24T21:48:56.221Z,70.50
2022-11-24T21:51:23.352Z,70.50
2022-11-24T21:53:50.304Z,70.60
2022-11-24T21:56:19.970Z,70.70
2022-11-24T21:58:51.495Z,70.50
2022-11-24T22:01:19.970Z,70.70
2022-11-24T22:03:47.180Z,70.60
2022-11-24T22:06:14.479Z,70.50
2022-11-24T22:08:41.341Z,71.40
2022-11-24T22:11:12.500Z,70.50
2022-11-24T22:13:39.814Z,70.50
2022-11-24T22:16:08.875Z,70.50
2022-11-24T22:18:38.420Z,70.50
2022-11-24T22:21:07.114Z,70.50
2022-11-24T22:23:35.329Z,70.60
2022-11-24T22:26:04.257Z,70.60
2022-11-24T22:28:33.251Z,70.60
2022-11-24T22:31:07.289Z,71.40
2022-11-24T22:33:34.492Z,70.60
2022-11-24T22:36:02.473Z,70.50
2022-11-24T22:38:30.996Z,70.60
2022-11-24T22:41:09.794Z,70.60
2022-11-24T22:43:38.607Z,70.80
2022-11-24T22:46:13.941Z,71.00
2022-11-24T22:48:41.688Z,71.30
2022-11-24T22:51:11.389Z,71.50
2022-11-24T22:53:38.813Z,71.60
2022-11-24T22:56:12.177Z,71.50
2022-11-24T22:58:39.925Z,71.40
2022-11-24T23:01:16.173Z,71.30
2022-11-24T23:03:43.612Z,71.50
2022-11-24T23:06:20.488Z,71.30
2022-11-24T23:08:47.554Z,71.40
2022-11-24T23:11:20.437Z,71.40
2022-11-24T23:13:47.572Z,71.50
2022-11-24T23:16:16.849Z,71.40
2022-11-24T23:18:48.783Z,72.40
2022-11-24T23:21:21.310Z,71.80
2022-11-24T23:23:49.039Z,71.80
2022-11-24T23:26:18.565Z,72.00
2022-11-24T23:28:45.487Z,72.30
2022-11-24T23:31:14.828Z,72.50
2022-11-24T23:33:42.441Z,72.60
2022-11-24T23:36:14.771Z,72.90
2022-11-24T23:38:42.385Z,73.00
2022-11-24T23:41:12.059Z,73.30
2022-11-24T23:43:40.322Z,73.40
2022-11-24T23:46:11.744Z,73.60
2022-11-24T23:48:39.663Z,73.70
2022-11-24T23:51:07.341Z,73.90
2022-11-24T23:53:35.316Z,74.20
2022-11-24T23:56:02.765Z,74.40
2022-11-24T23:58:29.946Z,74.60
